Kosho Maru No.2 — JD2440 — position and weather

sailwx.info

Track history (hours):
 
Tides and Currents Weather Stations Pressure Air Temp Water Temp Dewpoint Dewpoint Depression Visibility Wind Speed Wind Dir Waves Ship Positions

Kosho Maru No.2

Last reported at 2018-Jun-18 18:49 UTC. Time now 2018-Jun-21 22:07 UTC.
Position N 33°53' E 134°60'.

Length 75 m; draft 4.6 m.

Type: Cargo ship. MMSI: 431000218.

Date/timePositionNaut miles runAvg speedWind from/ knotsBaromVisibWave heightAir tempDewpointWater temp
2018-Jun-18 18:49N 33°53' E 134°60'310.6
2018-Jun-18 18:29N 33°56' E 134°57'610.9
2018-Jun-18 17:56N 34°01' E 134°53'1611.2
2018-Jun-18 16:28N 34°13' E 134°40'610.4
2018-Jun-18 15:51N 34°17' E 134°34'410.0
2018-Jun-18 15:30N 34°19' E 134°30'3 5.7
2018-Jun-18 15:00N 34°21' E 134°28'5 9.4
2018-Jun-18 14:31N 34°20' E 134°33'3 5.4
2018-Jun-18 14:00N 34°22' E 134°30'1 2.4
2018-Jun-18 13:30N 34°22' E 134°32'5 9.7
2018-Jun-18 13:00N 34°21' E 134°26'510.2
2018-Jun-18 12:29N 34°21' E 134°20'  
2018-Jun-14 21:14N 34°24' E 134°17'411.4
2018-Jun-14 20:54N 34°23' E 134°22'411.1
2018-Jun-14 20:30N 34°21' E 134°27'611.3
2018-Jun-14 20:00N 34°18' E 134°33'710.4
2018-Jun-14 19:21N 34°14' E 134°39'9 9.9
2018-Jun-14 18:25N 34°07' E 134°46'410.2
2018-Jun-14 17:59N 34°03' E 134°49'1 1.3
2018-Jun-14 17:20N 34°03' E 134°50'3 7.8
2018-Jun-14 17:00N 34°01' E 134°53'510.0
2018-Jun-14 16:30N 33°57' E 134°57'5 9.9
2018-Jun-14 16:00N 33°53' E 135°00'243 8.8
2018-Jun-13 12:20N 35°07' E 139°41'310.0
2018-Jun-13 12:00N 35°10' E 139°44'510.7
2018-Jun-13 11:30N 35°15' E 139°46'611.3
2018-Jun-13 11:00N 35°20' E 139°42'510.1
2018-Jun-13 10:30N 35°25' E 139°43'510.3
2018-Jun-13 10:00N 35°28' E 139°48'510.0
2018-Jun-13 09:30N 35°31' E 139°53'510.2
2018-Jun-13 09:00N 35°32' E 139°59'  
Track history (hours):
 
Tides and Currents Weather Stations Pressure Air Temp Water Temp Dewpoint Dewpoint Depression Visibility Wind Speed Wind Dir Waves Ship Positions

Kosho Maru No.2

Last reported at 2018-Jun-18 18:49 UTC. Time now 2018-Jun-21 22:07 UTC.
Position N 33°53' E 134°60'.

Length 75 m; draft 4.6 m.

Type: Cargo ship. MMSI: 431000218.

Date/timePositionNaut miles runAvg speedWind from/ knotsBaromVisibWave heightAir tempDewpointWater temp
2018-Jun-18 18:49N 33°53' E 134°60'310.6
2018-Jun-18 18:29N 33°56' E 134°57'610.9
2018-Jun-18 17:56N 34°01' E 134°53'1611.2
2018-Jun-18 16:28N 34°13' E 134°40'610.4
2018-Jun-18 15:51N 34°17' E 134°34'410.0
2018-Jun-18 15:30N 34°19' E 134°30'3 5.7
2018-Jun-18 15:00N 34°21' E 134°28'5 9.4
2018-Jun-18 14:31N 34°20' E 134°33'3 5.4
2018-Jun-18 14:00N 34°22' E 134°30'1 2.4
2018-Jun-18 13:30N 34°22' E 134°32'5 9.7
2018-Jun-18 13:00N 34°21' E 134°26'510.2
2018-Jun-18 12:29N 34°21' E 134°20'  
2018-Jun-14 21:14N 34°24' E 134°17'411.4
2018-Jun-14 20:54N 34°23' E 134°22'411.1
2018-Jun-14 20:30N 34°21' E 134°27'611.3
2018-Jun-14 20:00N 34°18' E 134°33'710.4
2018-Jun-14 19:21N 34°14' E 134°39'9 9.9
2018-Jun-14 18:25N 34°07' E 134°46'410.2
2018-Jun-14 17:59N 34°03' E 134°49'1 1.3
2018-Jun-14 17:20N 34°03' E 134°50'3 7.8
2018-Jun-14 17:00N 34°01' E 134°53'510.0
2018-Jun-14 16:30N 33°57' E 134°57'5 9.9
2018-Jun-14 16:00N 33°53' E 135°00'243 8.8
2018-Jun-13 12:20N 35°07' E 139°41'310.0
2018-Jun-13 12:00N 35°10' E 139°44'510.7
2018-Jun-13 11:30N 35°15' E 139°46'611.3
2018-Jun-13 11:00N 35°20' E 139°42'510.1
2018-Jun-13 10:30N 35°25' E 139°43'510.3
2018-Jun-13 10:00N 35°28' E 139°48'510.0
2018-Jun-13 09:30N 35°31' E 139°53'510.2
2018-Jun-13 09:00N 35°32' E 139°59'  

Dump ship's entire track history